Time;durP1;ratioP1;P1;durP2;ratioP2;P2;SDS_P1;SDS_P2;PMS_P1;PMS_P2;Temp;Humidity;BMP_temperature;BMP_pressure;BME280_temperature;BME280_humidity;BME280_pressure;Samples;Min_cycle;Max_cycle;Signal;HPM_P1;HPM_P2
2022/08/17 00:01:08;;;;;;;29.47;17.93;;;;;;;21.52;84.17;99709.24;124100;1105;108960;-77
2022/08/17 00:03:42;;;;;;;30.90;19.10;;;;;;;21.53;84.27;99710.11;125470;1104;104270;-76
2022/08/17 00:06:13;;;;;;;;;;;;;;;21.51;84.85;99707.47;124204;1105;103008;-76
2022/08/17 00:08:47;;;;;;;28.70;16.97;;;;;;;21.51;84.65;99709.28;124080;1105;104348;-77
2022/08/17 00:11:22;;;;;;;27.67;16.53;;;;;;;21.50;84.05;99713.75;125444;1105;104248;-77
2022/08/17 00:13:58;;;;;;;31.13;17.27;;;;;;;21.49;85.15;99706.64;124119;1105;104166;-77
2022/08/17 00:16:40;;;;;;;26.63;16.87;;;;;;;21.51;84.82;99701.27;124507;1104;104811;-77
2022/08/17 00:19:16;;;;;;;34.00;18.50;;;;;;;21.51;85.24;99695.93;125409;1104;102404;-77
2022/08/17 00:21:49;;;;;;;27.73;17.20;;;;;;;21.51;85.17;99701.27;124120;1105;104236;-77
2022/08/17 00:24:37;;;;;;;29.52;17.57;;;;;;;21.49;84.83;99701.30;124164;1105;104251;-77
2022/08/17 00:27:18;;;;;;;26.07;17.03;;;;;;;21.46;85.00;99698.66;124104;1105;102277;-77
2022/08/17 00:29:52;;;;;;;29.93;17.23;;;;;;;21.45;85.36;99704.91;124171;1102;102791;-77
2022/08/17 00:32:24;;;;;;;;;;;;;;;21.44;84.21;99704.94;124226;1102;101916;-77
2022/08/17 00:34:59;;;;;;;29.30;16.77;;;;;;;21.44;85.09;99697.83;124982;1105;104264;-76
2022/08/17 00:37:29;;;;;;;;;;;;;;;21.41;84.30;99697.90;124133;1102;104248;-76
2022/08/17 00:40:20;;;;;;;28.30;16.70;;;;;;;21.38;85.07;99692.62;124162;1102;102168;-76
2022/08/17 00:42:52;;;;;;;27.20;17.00;;;;;;;21.37;85.55;99702.40;124195;1103;102816;-77
2022/08/17 00:45:29;;;;;;;26.70;17.10;;;;;;;21.36;85.25;99705.09;126586;1101;102981;-76
2022/08/17 00:48:01;;;;;;;27.50;17.10;;;;;;;21.34;85.11;99713.14;124120;1102;103104;-77
2022/08/17 00:50:33;;;;;;;30.23;17.87;;;;;;;21.33;85.79;99711.40;124092;1102;104237;-76
2022/08/17 00:53:05;;;;;;;30.67;17.93;;;;;;;21.34;85.02;99713.14;124002;1105;102839;-77
2022/08/17 00:55:38;;;;;;;27.80;18.70;;;;;;;21.33;85.64;99708.73;124138;1102;102890;-76
2022/08/17 00:58:10;;;;;;;29.60;18.55;;;;;;;21.32;85.77;99717.64;124143;1102;104776;-76
2022/08/17 01:00:46;;;;;;;27.10;17.07;;;;;;;21.29;86.07;99720.38;124043;1103;104335;-76
2022/08/17 01:03:23;;;;;;;25.60;15.93;;;;;;;21.26;84.82;99722.23;124058;1106;104197;-76
2022/08/17 01:05:58;;;;;;;27.00;17.10;;;;;;;21.19;85.79;99722.36;124091;1104;104380;-77
2022/08/17 01:08:31;;;;;;;24.43;16.73;;;;;;;21.15;84.97;99725.98;124113;1105;104166;-77
2022/08/17 01:11:04;;;;;;;27.80;16.60;;;;;;;21.11;85.50;99718.94;124005;1106;103590;-76
2022/08/17 01:13:39;;;;;;;30.02;17.45;;;;;;;21.08;85.59;99721.67;123999;1105;104108;-76
2022/08/17 01:16:17;;;;;;;26.07;16.37;;;;;;;21.08;86.12;99719.00;124020;1105;104230;-77
2022/08/17 01:18:55;;;;;;;31.03;16.23;;;;;;;21.12;85.97;99720.70;124003;1103;104482;-76
2022/08/17 01:21:34;;;;;;;30.73;17.50;;;;;;;21.13;85.69;99729.58;123990;1105;104234;-77
2022/08/17 01:24:07;;;;;;;29.13;18.17;;;;;;;21.13;85.83;99718.91;124044;1105;104492;-77
2022/08/17 01:26:40;;;;;;;29.10;17.83;;;;;;;21.14;86.20;99723.34;123954;1105;104358;-77
2022/08/17 01:29:11;;;;;;;;;;;;;;;21.12;85.57;99728.71;124066;1105;104301;-76
2022/08/17 01:31:47;;;;;;;30.83;17.57;;;;;;;21.13;85.87;99726.91;123971;1105;104403;-76
2022/08/17 01:34:22;;;;;;;29.50;18.50;;;;;;;21.13;86.05;99725.15;124080;1105;102222;-77
2022/08/17 01:36:54;;;;;;;32.90;19.43;;;;;;;21.14;85.70;99726.02;124130;1102;104245;-76
2022/08/17 01:42:32;;;;;;;29.60;18.13;;;;;;;21.12;86.03;99730.52;125521;1101;103337;-76
2022/08/17 01:45:25;;;;;;;33.40;18.70;;;;;;;21.08;86.59;99727.00;124083;1105;102842;-77
2022/08/17 01:47:57;;;;;;;36.25;18.45;;;;;;;21.03;85.80;99726.22;124269;1102;104169;-76
2022/08/17 01:50:33;;;;;;;29.40;18.60;;;;;;;20.99;85.96;99719.22;124254;1102;102376;-77
2022/08/17 01:53:09;;;;;;;36.07;19.23;;;;;;;21.00;86.33;99720.95;125431;1101;104261;-77
2022/08/17 01:55:45;;;;;;;32.83;19.47;;;;;;;21.03;86.32;99712.89;124252;1102;104226;-77
2022/08/17 01:58:17;;;;;;;35.77;19.10;;;;;;;21.05;86.23;99713.77;124234;1102;104227;-76
2022/08/17 02:00:56;;;;;;;30.60;19.30;;;;;;;21.09;87.26;99717.23;124309;1102;102784;-76
2022/08/17 02:03:28;;;;;;;29.87;18.20;;;;;;;21.12;87.46;99718.05;124070;1102;118982;-76
2022/08/17 02:06:04;;;;;;;29.53;18.30;;;;;;;21.14;86.95;99716.22;124182;1102;104268;-77
2022/08/17 02:08:36;;;;;;;29.30;18.17;;;;;;;21.16;86.88;99717.08;124272;1102;104977;-76
2022/08/17 02:11:10;;;;;;;27.73;17.97;;;;;;;21.18;86.67;99715.25;124243;1102;102872;-76
2022/08/17 02:13:41;;;;;;;29.23;18.23;;;;;;;21.19;86.99;99714.35;124278;1102;104182;-76
2022/08/17 02:16:14;;;;;;;30.20;17.70;;;;;;;21.22;86.88;99707.19;124299;1102;102749;-76
2022/08/17 02:18:46;;;;;;;29.20;17.80;;;;;;;21.23;86.87;99706.29;124261;1102;104169;-77
2022/08/17 02:21:18;;;;;;;31.03;18.30;;;;;;;21.24;87.50;99710.69;124251;1102;104201;-77
2022/08/17 02:23:50;;;;;;;27.73;17.83;;;;;;;21.24;87.15;99721.36;124234;1102;102464;-76
2022/08/17 02:26:22;;;;;;;30.40;18.60;;;;;;;21.21;87.29;99721.42;124270;1102;104264;-77
2022/08/17 02:28:54;;;;;;;29.07;19.07;;;;;;;21.20;87.43;99725.89;124078;1102;104156;-76
2022/08/17 02:31:26;;;;;;;32.83;19.73;;;;;;;21.20;86.80;99731.23;124196;1102;104169;-76
2022/08/17 02:33:57;;;;;;;29.27;20.27;;;;;;;21.21;87.24;99721.42;124277;1102;104169;-76
2022/08/17 02:36:29;;;;;;;29.30;19.60;;;;;;;21.22;86.97;99728.53;124281;1102;102845;-76
2022/08/17 02:39:00;;;;;;;36.37;22.37;;;;;;;21.20;86.70;99725.89;124265;1102;104173;-77
2022/08/17 02:41:32;;;;;;;34.70;22.23;;;;;;;21.19;87.72;99722.36;124244;1102;102768;-77
2022/08/17 02:44:04;;;;;;;31.40;21.83;;;;;;;21.19;87.51;99730.36;124258;1102;104238;-76
2022/08/17 02:46:36;;;;;;;32.67;22.13;;;;;;;21.19;87.33;99724.13;124107;1102;104238;-76
2022/08/17 02:49:07;;;;;;;34.60;21.03;;;;;;;21.19;87.03;99730.36;124090;1102;104220;-75
2022/08/17 02:51:39;;;;;;;34.53;22.07;;;;;;;21.20;87.59;99728.56;124258;1102;104175;-76
2022/08/17 02:54:11;;;;;;;32.43;20.87;;;;;;;21.21;87.39;99721.42;124151;1102;104249;-77
2022/08/17 02:56:42;;;;;;;33.87;20.97;;;;;;;21.21;87.60;99719.66;124298;1102;102036;-77
2022/08/17 02:59:14;;;;;;;32.30;21.47;;;;;;;21.22;86.93;99717.86;124214;1102;104175;-76
2022/08/17 03:01:47;;;;;;;33.10;21.25;;;;;;;21.21;87.84;99716.09;124185;1102;103611;-76
2022/08/17 03:04:19;;;;;;;31.75;21.48;;;;;;;21.21;86.72;99724.09;124264;1102;102985;-77
2022/08/17 03:06:51;;;;;;;29.93;20.30;;;;;;;21.19;87.88;99719.69;124204;1102;104176;-76
2022/08/17 03:09:22;;;;;;;32.73;20.97;;;;;;;21.21;87.47;99718.76;124226;1102;104181;-76
2022/08/17 03:11:54;;;;;;;32.17;21.33;;;;;;;21.22;87.93;99723.19;124253;1102;104188;-76
2022/08/17 03:14:25;;;;;;;33.27;21.50;;;;;;;21.23;88.43;99720.50;124221;1102;102797;-76
2022/08/17 03:16:56;;;;;;;31.70;20.80;;;;;;;21.24;87.66;99724.03;124258;1102;102896;-76
2022/08/17 03:19:28;;;;;;;30.37;21.03;;;;;;;21.23;87.36;99723.16;124116;1102;104262;-77
2022/08/17 03:22:01;;;;;;;30.63;20.87;;;;;;;21.21;87.26;99729.43;124221;1102;104326;-76
2022/08/17 03:24:32;;;;;;;29.87;21.07;;;;;;;21.21;87.39;99729.43;124167;1102;104223;-76
2022/08/17 03:27:04;;;;;;;29.67;21.10;;;;;;;21.17;87.46;99734.83;124208;1102;104182;-77
2022/08/17 03:29:35;;;;;;;33.43;21.53;;;;;;;21.14;87.56;99737.55;124273;1102;104370;-77
2022/08/17 03:32:16;;;;;;;32.07;20.90;;;;;;;21.11;87.90;99729.61;124244;1102;104178;-77
2022/08/17 03:34:48;;;;;;;30.47;21.47;;;;;;;21.12;88.24;99736.72;124161;1102;104425;-77
2022/08/17 03:37:20;;;;;;;30.20;21.23;;;;;;;21.14;88.14;99737.55;124221;1102;104173;-76
2022/08/17 03:39:53;;;;;;;34.27;21.77;;;;;;;21.17;87.80;99734.83;124267;1102;104128;-76
2022/08/17 03:42:27;;;;;;;37.20;22.07;;;;;;;21.18;87.73;99741.93;124293;1102;104207;-76
2022/08/17 03:45:00;;;;;;;34.97;20.97;;;;;;;21.19;88.55;99740.13;124261;1102;104169;-76
2022/08/17 03:58:54;;;;;;;28.63;19.83;;;;;;;21.13;88.56;99751.82;124251;1102;103011;-76
2022/08/17 04:01:27;;;;;;;30.60;20.53;;;;;;;21.14;88.85;99745.55;124261;1102;104176;-76
2022/08/17 04:03:59;;;;;;;28.38;19.77;;;;;;;21.15;88.54;99749.99;124238;1102;104230;-76
2022/08/17 04:06:30;;;;;;;35.00;20.03;;;;;;;21.15;88.67;99749.13;124192;1102;109439;-76
2022/08/17 04:09:01;;;;;;;30.80;20.90;;;;;;;21.15;88.17;99749.13;124275;1102;104208;-75
2022/08/17 04:11:33;;;;;;;31.30;21.33;;;;;;;21.14;88.17;99747.36;124240;1102;102787;-75
2022/08/17 04:14:05;;;;;;;32.10;19.60;;;;;;;21.12;88.50;99744.72;124204;1102;104205;-75
2022/08/17 04:16:37;;;;;;;32.73;20.10;;;;;;;21.13;88.64;99749.16;124236;1102;104383;-75
2022/08/17 04:19:09;;;;;;;29.17;20.30;;;;;;;21.14;88.08;99750.02;124257;1102;104262;-76
2022/08/17 04:21:40;;;;;;;31.20;20.30;;;;;;;21.15;88.15;99749.99;124287;1102;104694;-77
2022/08/17 04:24:12;;;;;;;33.67;22.00;;;;;;;21.15;88.35;99755.33;124258;1102;104229;-76
2022/08/17 04:26:44;;;;;;;31.63;20.50;;;;;;;21.17;89.06;99748.16;124039;1102;104162;-76
2022/08/17 04:29:16;;;;;;;32.67;19.05;;;;;;;21.21;88.71;99741.00;124275;1102;104249;-76
2022/08/17 04:31:48;;;;;;;33.33;20.13;;;;;;;21.27;89.08;99753.31;124226;1102;104261;-76
2022/08/17 04:34:19;;;;;;;30.20;21.40;;;;;;;21.29;88.45;99746.19;124327;1102;104172;-76
2022/08/17 04:36:51;;;;;;;30.00;20.17;;;;;;;21.28;88.60;99749.75;124277;1102;102624;-76
2022/08/17 04:39:24;;;;;;;37.80;23.70;;;;;;;21.27;89.19;99753.31;124223;1101;102810;-76
2022/08/17 04:42:08;;;;;;;;;;;;;;;21.24;88.65;99753.38;124326;1102;104172;-75
2022/08/17 04:44:39;;;;;;;34.00;21.27;;;;;;;21.29;88.79;99749.72;124225;1102;104191;-76
2022/08/17 04:47:11;;;;;;;34.70;22.93;;;;;;;21.36;89.17;99755.80;124212;1102;104239;-76
2022/08/17 04:49:42;;;;;;;34.27;22.07;;;;;;;21.43;89.56;99743.23;124268;1102;102803;-77
2022/08/17 04:52:14;;;;;;;33.77;23.10;;;;;;;21.50;89.57;99750.21;124224;1102;104233;-77
2022/08/17 04:54:45;;;;;;;31.93;21.67;;;;;;;21.60;89.20;99751.78;124252;1102;104207;-77
2022/08/17 04:57:16;;;;;;;31.10;20.53;;;;;;;21.66;88.99;99753.42;124184;1102;104178;-77
2022/08/17 04:59:48;;;;;;;33.27;22.03;;;;;;;21.69;88.68;99753.36;124225;1102;104067;-76
2022/08/17 05:02:19;;;;;;;33.20;21.77;;;;;;;21.73;88.80;99755.06;124212;1102;104169;-76
2022/08/17 05:04:51;;;;;;;33.47;22.73;;;;;;;21.77;89.11;99758.53;124178;1102;104191;-75
2022/08/17 05:07:22;;;;;;;28.90;21.30;;;;;;;21.80;89.71;99754.02;124205;1102;104242;-75
2022/08/17 05:09:54;;;;;;;30.00;21.50;;;;;;;21.87;88.69;99758.30;124205;1102;104185;-75
2022/08/17 05:12:25;;;;;;;31.97;20.63;;;;;;;21.95;89.26;99763.46;124194;1102;102791;-76
2022/08/17 05:14:57;;;;;;;30.03;21.60;;;;;;;22.01;89.74;99767.80;124194;1102;104163;-75
2022/08/17 05:17:28;;;;;;;32.70;22.17;;;;;;;22.07;89.41;99770.33;124144;1101;104169;-76
2022/08/17 05:20:00;;;;;;;30.37;22.30;;;;;;;22.12;89.18;99771.09;124183;1102;104214;-76
2022/08/17 05:22:32;;;;;;;30.70;21.47;;;;;;;22.19;88.79;99771.81;124093;1102;104178;-77
2022/08/17 05:25:05;;;;;;;31.90;21.80;;;;;;;22.21;88.98;99770.88;124247;1102;104205;-77
2022/08/17 05:27:36;;;;;;;34.10;23.93;;;;;;;22.27;89.01;99772.53;124279;1102;103464;-76
2022/08/17 05:30:16;;;;;;;31.20;21.57;;;;;;;22.32;89.29;99765.30;124240;1102;104163;-75
2022/08/17 05:32:57;;;;;;;31.63;22.77;;;;;;;22.38;88.89;99764.29;124065;1102;104105;-76
2022/08/17 05:35:32;;;;;;;30.83;21.70;;;;;;;22.43;88.70;99759.70;124932;1102;104644;-78
2022/08/17 05:38:07;;;;;;;34.30;22.27;;;;;;;22.47;88.75;99763.16;124244;1102;104233;-76
2022/08/17 05:40:39;;;;;;;32.87;22.07;;;;;;;22.55;88.97;99759.39;124063;1102;104201;-77
2022/08/17 05:43:23;;;;;;;35.90;22.00;;;;;;;22.70;88.54;99759.91;124174;1102;102846;-74
2022/08/17 05:46:11;;;;;;;29.27;20.87;;;;;;;22.82;88.93;99767.61;124179;1102;104267;-75
2022/08/17 05:48:45;;;;;;;30.80;20.07;;;;;;;22.87;88.76;99765.69;124045;1102;109419;-75
2022/08/17 05:51:32;;;;;;;32.53;20.53;;;;;;;22.97;88.78;99772.55;124250;1102;104165;-76
2022/08/17 05:54:29;;;;;;;31.83;20.37;;;;;;;23.09;88.80;99765.14;124215;1102;104302;-75
2022/08/17 05:57:20;;;;;;;27.80;19.90;;;;;;;23.16;88.47;99748.01;124212;1102;104273;-75
2022/08/17 06:00:01;;;;;;;29.07;19.00;;;;;;;23.26;88.52;99757.51;124273;1102;104239;-76
2022/08/17 06:02:42;;;;;;;28.23;17.80;;;;;;;23.31;87.75;99754.70;124753;1103;104165;-76
2022/08/17 06:05:33;;;;;;;25.10;15.90;;;;;;;23.31;87.50;99755.60;124274;1102;102762;-77
2022/08/17 06:08:16;;;;;;;30.93;17.20;;;;;;;23.36;87.52;99751.90;124287;1102;104358;-76
2022/08/17 06:11:01;;;;;;;25.63;16.60;;;;;;;23.42;87.66;99757.97;124063;1103;104172;-76
2022/08/17 06:13:49;;;;;;;29.93;16.37;;;;;;;23.50;87.05;99763.97;124090;1102;104263;-76
2022/08/17 06:16:30;;;;;;;28.57;17.17;;;;;;;23.56;86.90;99757.57;124242;1102;104238;-76
2022/08/17 06:19:07;;;;;;;26.87;15.77;;;;;;;23.56;86.42;99746.86;124287;1102;102290;-75
2022/08/17 06:21:42;;;;;;;32.43;17.80;;;;;;;23.57;86.64;99755.76;124069;1102;103912;-78
2022/08/17 06:24:28;;;;;;;25.30;15.77;;;;;;;23.60;86.16;99756.53;124166;1102;104083;-77
2022/08/17 06:27:11;;;;;;;30.37;17.37;;;;;;;23.67;86.15;99750.08;124269;1102;102774;-77
2022/08/17 06:30:03;;;;;;;30.80;17.57;;;;;;;23.76;85.79;99756.08;124265;1102;109552;-76
2022/08/17 06:32:41;;;;;;;29.33;16.83;;;;;;;23.82;85.66;99754.08;124297;1102;104160;-77
2022/08/17 06:35:18;;;;;;;34.13;17.13;;;;;;;23.85;85.77;99761.19;124713;1099;104201;-76
2022/08/17 06:38:09;;;;;;;29.83;17.73;;;;;;;23.86;85.47;99757.59;124353;1099;104140;-77
2022/08/17 06:40:56;;;;;;;32.63;17.03;;;;;;;23.83;85.22;99763.02;124852;1099;104259;-78
2022/08/17 06:43:43;;;;;;;30.77;14.37;;;;;;;23.83;84.70;99763.88;125629;1099;104233;-76
2022/08/17 06:46:24;;;;;;;24.65;13.75;;;;;;;23.86;84.63;99765.63;125684;1099;104174;-78
2022/08/17 06:49:09;;;;;;;23.30;12.97;;;;;;;23.95;84.35;99762.67;125073;1099;104738;-75
2022/08/17 06:51:45;;;;;;;21.77;12.90;;;;;;;24.09;83.68;99766.70;124289;1102;102619;-75
2022/08/17 06:54:30;;;;;;;23.07;11.30;;;;;;;24.22;83.49;99760.90;124295;1102;104057;-76
2022/08/17 06:57:13;;;;;;;24.50;11.60;;;;;;;24.38;82.11;99766.63;124268;1102;104245;-76
2022/08/17 06:59:52;;;;;;;21.63;11.23;;;;;;;24.61;82.58;99762.34;124268;1102;104233;-75
2022/08/17 07:02:36;;;;;;;17.07;9.73;;;;;;;24.80;81.70;99772.45;124312;1102;104271;-74
2022/08/17 07:05:14;;;;;;;15.13;8.93;;;;;;;24.97;80.97;99770.05;124668;1102;104204;-75
2022/08/17 07:08:04;;;;;;;18.10;8.60;;;;;;;25.11;80.74;99767.73;124321;1103;104198;-76
2022/08/17 07:10:45;;;;;;;18.47;10.00;;;;;;;25.22;79.40;99761.12;125138;1102;111024;-80
2022/08/17 07:13:44;;;;;;;17.83;8.50;;;;;;;25.41;79.88;99766.71;125068;1102;104223;-80
2022/08/17 07:16:59;;;;;;;14.57;7.93;;;;;;;25.70;78.96;99765.61;125027;1102;104559;-78
2022/08/17 07:19:46;;;;;;;15.53;8.70;;;;;;;25.97;78.54;99773.53;124962;1102;104185;-78
2022/08/17 07:22:30;;;;;;;15.40;8.63;;;;;;;26.21;77.33;99777.09;125045;1102;101818;-79
2022/08/17 07:25:20;;;;;;;19.03;9.03;;;;;;;26.40;76.11;99770.94;125702;1099;104650;-78
2022/08/17 07:27:58;;;;;;;16.93;8.90;;;;;;;26.55;76.30;99768.51;126517;1098;101796;-77
2022/08/17 07:30:51;;;;;;;19.03;9.20;;;;;;;26.63;74.51;99772.67;125713;1099;104300;-78
2022/08/17 07:33:26;;;;;;;17.40;8.80;;;;;;;26.67;74.58;99767.13;125627;1099;103428;-77
2022/08/17 07:36:05;;;;;;;18.50;9.13;;;;;;;26.69;74.04;99767.06;125614;1099;104263;-78
2022/08/17 07:38:57;;;;;;;17.43;8.90;;;;;;;26.72;74.17;99767.83;125739;1099;104238;-76
2022/08/17 07:41:34;;;;;;;17.73;8.87;;;;;;;26.73;73.12;99779.45;125065;1099;104166;-76
2022/08/17 07:44:16;;;;;;;17.20;8.77;;;;;;;26.72;73.81;99775.00;124890;1099;104335;-76
2022/08/17 07:49:59;;;;;;;17.23;9.00;;;;;;;26.58;72.21;99782.76;125598;1098;104178;-78
2022/08/17 07:52:33;;;;;;;14.30;8.27;;;;;;;26.46;71.91;99787.72;125670;1099;104229;-77
2022/08/17 07:55:30;;;;;;;18.10;8.73;;;;;;;26.43;72.04;99784.26;125652;1098;102136;-78
2022/08/17 07:58:08;;;;;;;18.23;8.53;;;;;;;26.43;71.38;99785.16;125564;1099;104232;-77
2022/08/17 08:01:03;;;;;;;17.73;8.87;;;;;;;26.40;71.22;99776.31;125628;1099;102784;-77
2022/08/17 08:03:46;;;;;;;16.60;9.30;;;;;;;26.41;70.53;99775.39;125678;1099;102310;-77
2022/08/17 08:06:27;;;;;;;17.57;8.97;;;;;;;26.46;70.93;99771.58;125594;1099;104268;-78
2022/08/17 08:09:00;;;;;;;19.33;9.20;;;;;;;26.52;69.74;99765.94;124790;1099;102568;-77
2022/08/17 08:11:47;;;;;;;16.37;9.60;;;;;;;26.59;70.09;99771.06;125480;1098;104173;-77
2022/08/17 08:14:25;;;;;;;23.47;10.93;;;;;;;26.64;69.89;99758.28;124827;1099;104229;-77
2022/08/17 08:17:03;;;;;;;22.97;12.53;;;;;;;26.64;69.54;99759.15;125637;1099;104229;-78
2022/08/17 08:22:56;;;;;;;19.17;11.30;;;;;;;26.95;68.85;99762.38;125534;1099;104204;-77
2022/08/17 08:25:55;;;;;;;23.97;11.53;;;;;;;27.24;69.22;99759.27;124439;1099;104236;-77
2022/08/17 08:28:36;;;;;;;20.63;11.60;;;;;;;27.56;68.64;99765.02;124611;1099;102479;-79
2022/08/17 08:31:15;;;;;;;;;;;;;;;27.82;67.98;99753.98;124536;1099;104232;-77
2022/08/17 08:34:02;;;;;;;23.13;12.07;;;;;;;28.09;67.72;99755.35;124899;1099;104232;-79
2022/08/17 08:36:50;;;;;;;20.40;11.07;;;;;;;28.29;67.46;99754.38;124982;1099;104162;-79
2022/08/17 08:39:46;;;;;;;18.67;10.50;;;;;;;28.45;67.16;99748.21;125513;1098;102980;-78
2022/08/17 08:42:42;;;;;;;18.10;10.63;;;;;;;28.47;66.80;99743.61;125452;1099;104172;-78
2022/08/17 08:45:31;;;;;;;17.77;10.73;;;;;;;28.38;66.75;99752.19;124963;1099;104274;-78
2022/08/17 08:48:22;;;;;;;19.03;11.20;;;;;;;28.14;65.27;99750.63;124948;1099;102227;-78
2022/08/17 08:51:10;;;;;;;18.00;10.47;;;;;;;27.90;65.08;99749.95;125637;1099;101906;-78
2022/08/17 08:54:00;;;;;;;21.13;11.53;;;;;;;27.64;63.77;99751.19;125486;1099;104163;-79
2022/08/17 08:57:20;;;;;;;20.33;10.87;;;;;;;27.43;64.41;99753.08;126432;1098;102931;-78
2022/08/17 09:00:04;;;;;;;20.62;10.28;;;;;;;27.20;64.10;99752.25;124422;1099;104162;-78
2022/08/17 09:03:08;;;;;;;19.80;10.27;;;;;;;27.03;63.99;99747.63;125568;1099;104217;-78
2022/08/17 09:06:02;;;;;;;19.20;10.40;;;;;;;26.90;64.02;99744.61;124948;1099;104215;-78
2022/08/17 09:08:54;;;;;;;20.80;10.97;;;;;;;26.81;63.63;99742.31;124252;1102;104350;-78
2022/08/17 09:11:47;;;;;;;20.47;10.70;;;;;;;26.78;64.38;99749.66;125054;1099;104620;-78
2022/08/17 09:14:38;;;;;;;21.77;11.73;;;;;;;26.80;64.41;99742.37;125332;1098;104189;-79
2022/08/17 09:17:16;;;;;;;20.60;10.47;;;;;;;26.92;64.23;99751.75;125579;1099;104763;-78
2022/08/17 09:22:51;;;;;;;19.73;11.30;;;;;;;27.34;63.95;99748.97;125069;1099;104162;-78
2022/08/17 09:25:29;;;;;;;21.53;11.40;;;;;;;27.55;63.00;99744.42;125639;1099;104335;-78
2022/08/17 09:28:05;;;;;;;19.00;10.97;;;;;;;27.79;62.83;99739.68;124962;1099;104092;-78
2022/08/17 09:30:44;;;;;;;18.17;10.37;;;;;;;28.01;62.64;99735.13;124482;1102;104264;-79
2022/08/17 09:33:25;;;;;;;24.17;11.87;;;;;;;28.19;62.32;99736.92;124496;1099;104175;-79
2022/08/17 09:36:03;;;;;;;19.95;10.90;;;;;;;28.42;62.51;99742.97;125128;1099;102806;-78
2022/08/17 09:38:47;;;;;;;17.40;10.40;;;;;;;28.60;62.03;99738.52;125744;1099;104050;-78
2022/08/17 09:41:24;;;;;;;18.37;10.33;;;;;;;28.85;62.10;99746.20;124980;1099;102441;-77
2022/08/17 09:44:22;;;;;;;18.63;9.93;;;;;;;29.08;61.77;99742.30;125764;1099;104243;-78
2022/08/17 09:47:05;;;;;;;17.87;10.70;;;;;;;29.35;61.36;99737.26;125713;1099;102078;-80
2022/08/17 09:49:45;;;;;;;16.87;10.15;;;;;;;29.57;61.16;99730.68;125080;1099;104204;-79
2022/08/17 09:52:23;;;;;;;15.43;9.87;;;;;;;29.72;60.86;99721.71;125190;1099;102610;-79
2022/08/17 09:54:57;;;;;;;18.40;9.40;;;;;;;29.85;60.13;99734.58;125726;1099;104172;-79
2022/08/17 09:57:51;;;;;;;17.63;10.10;;;;;;;29.79;60.21;99735.75;124950;1099;104153;-79
2022/08/17 10:00:32;;;;;;;18.97;10.23;;;;;;;29.57;59.51;99736.08;125204;1099;104226;-79
2022/08/17 10:04:04;;;;;;;18.80;10.93;;;;;;;29.32;58.21;99745.53;125112;1099;103714;-80
2022/08/17 10:07:24;;;;;;;21.27;10.83;;;;;;;29.03;58.93;99736.25;125134;1099;104313;-81
2022/08/17 10:10:19;;;;;;;21.20;11.20;;;;;;;28.92;58.60;99730.55;125713;1099;104200;-80
2022/08/17 10:13:06;;;;;;;24.27;11.63;;;;;;;28.79;58.40;99733.89;125677;1099;104313;-78
2022/08/17 10:15:54;;;;;;;19.52;11.40;;;;;;;28.67;58.12;99732.72;125518;1099;104175;-77
2022/08/17 10:18:41;;;;;;;18.73;11.07;;;;;;;28.57;58.22;99736.80;124861;1099;104239;-76
2022/08/17 10:27:12;;;;;;;20.70;11.53;;;;;;;28.79;58.56;99751.92;125260;1098;103124;-77
2022/08/17 10:29:47;;;;;;;20.83;11.80;;;;;;;28.98;58.48;99743.73;124807;1099;104163;-77
2022/08/17 10:32:31;;;;;;;21.73;11.10;;;;;;;29.13;57.86;99755.56;124825;1099;104246;-77
2022/08/17 10:35:17;;;;;;;;;;;;;;;29.19;56.65;99750.73;124326;1099;102971;-77
2022/08/17 10:38:13;;;;;;;19.00;10.03;;;;;;;29.39;57.16;99760.47;124293;1099;103112;-77
2022/08/17 10:40:53;;;;;;;21.40;10.57;;;;;;;29.45;56.47;99758.38;124394;1102;104211;-77
2022/08/17 10:43:47;;;;;;;16.73;10.27;;;;;;;29.62;56.79;99754.75;124344;1099;104249;-77
2022/08/17 10:46:26;;;;;;;19.10;11.20;;;;;;;29.66;56.30;99762.61;124375;1100;104211;-77
2022/08/17 10:49:33;;;;;;;17.97;10.77;;;;;;;29.57;55.88;99755.86;124326;1099;104237;-78
2022/08/17 10:52:47;;;;;;;18.83;10.23;;;;;;;29.60;56.00;99737.75;125107;1099;104163;-79
2022/08/17 10:55:24;;;;;;;17.13;9.90;;;;;;;29.60;55.08;99744.02;125010;1099;104229;-79
2022/08/17 10:58:23;;;;;;;15.20;9.60;;;;;;;29.63;55.64;99743.86;124983;1099;104220;-78
2022/08/17 11:01:03;;;;;;;16.97;9.60;;;;;;;29.46;55.29;99741.22;125085;1102;104344;-78
2022/08/17 11:03:53;;;;;;;18.30;9.97;;;;;;;29.36;55.27;99746.26;125559;1099;101769;-79
2022/08/17 11:06:41;;;;;;;24.40;10.53;;;;;;;29.30;55.27;99744.75;124766;1102;102724;-78
2022/08/17 11:09:45;;;;;;;22.07;11.53;;;;;;;29.27;55.20;99733.25;125099;1099;104244;-79
2022/08/17 11:12:37;;;;;;;16.90;10.50;;;;;;;29.25;55.30;99737.84;124537;1099;102228;-77
2022/08/17 11:15:32;;;;;;;19.40;10.40;;;;;;;29.15;54.97;99737.44;124503;1099;102752;-78
2022/08/17 11:18:28;;;;;;;18.97;10.10;;;;;;;29.00;54.75;99737.31;124839;1099;104265;-79
2022/08/17 11:21:31;;;;;;;19.67;10.37;;;;;;;28.87;55.22;99744.30;124992;1099;103264;-79
2022/08/17 11:24:19;;;;;;;21.77;11.00;;;;;;;28.78;55.43;99739.38;125633;1099;104309;-79
2022/08/17 11:27:12;;;;;;;20.40;10.70;;;;;;;28.70;55.25;99737.06;125220;1102;104200;-79
2022/08/17 11:29:55;;;;;;;19.40;10.80;;;;;;;28.73;55.53;99736.05;126139;1098;102159;-79
2022/08/17 11:32:54;;;;;;;18.87;10.63;;;;;;;28.74;55.12;99735.11;125623;1099;104235;-79
2022/08/17 11:35:48;;;;;;;19.53;10.50;;;;;;;28.72;55.27;99748.68;125665;1099;102749;-80
2022/08/17 11:38:45;;;;;;;21.97;11.40;;;;;;;28.62;55.39;99737.46;125672;1099;104169;-79
2022/08/17 11:41:36;;;;;;;18.83;11.10;;;;;;;28.53;55.38;99745.12;125154;1098;102852;-80
2022/08/17 11:45:07;;;;;;;19.97;11.30;;;;;;;28.48;55.78;99739.97;125650;1099;104255;-79
2022/08/17 11:58:13;;;;;;;20.07;12.10;;;;;;;27.89;57.50;99715.88;125704;1099;101829;-79
2022/08/17 12:00:56;;;;;;;20.53;11.90;;;;;;;27.98;57.27;99712.73;125116;1099;103201;-79
2022/08/17 12:03:47;;;;;;;20.13;11.97;;;;;;;28.10;57.36;99710.41;125761;1099;104076;-81
2022/08/17 12:06:57;;;;;;;22.13;12.67;;;;;;;28.26;57.45;99705.97;126598;1098;102006;-81
2022/08/17 12:09:44;;;;;;;24.70;12.70;;;;;;;28.43;57.67;99701.56;125785;1099;104182;-79
2022/08/17 12:12:28;;;;;;;21.07;11.47;;;;;;;28.61;57.53;99718.65;125190;1099;104336;-78
2022/08/17 12:15:17;;;;;;;21.33;12.30;;;;;;;28.64;57.18;99715.79;125139;1099;104328;-78
2022/08/17 12:18:00;;;;;;;20.60;11.90;;;;;;;28.82;57.07;99712.13;126074;1098;101845;-79
2022/08/17 12:20:38;;;;;;;17.17;11.30;;;;;;;28.97;57.03;99707.77;125777;1099;104179;-81
2022/08/17 12:23:22;;;;;;;20.03;11.60;;;;;;;29.00;56.53;99702.20;125713;1099;101851;-79
2022/08/17 12:26:11;;;;;;;22.00;11.73;;;;;;;29.15;56.62;99699.62;125127;1099;104156;-78
2022/08/17 12:28:49;;;;;;;22.67;13.10;;;;;;;29.31;56.36;99705.98;125697;1099;104157;-78
2022/08/17 12:31:28;;;;;;;25.27;13.27;;;;;;;29.54;56.46;99703.82;125010;1099;104464;-78
2022/08/17 12:34:07;;;;;;;19.93;12.17;;;;;;;29.59;56.41;99709.83;124957;1102;103499;-76
2022/08/17 12:36:42;;;;;;;26.23;13.20;;;;;;;29.55;56.36;99698.33;124396;1102;104250;-77
2022/08/17 12:39:22;;;;;;;22.93;13.23;;;;;;;29.44;56.46;99699.91;125236;1102;103163;-78
2022/08/17 12:42:15;;;;;;;21.83;12.87;;;;;;;29.40;56.48;99702.78;125678;1102;104237;-78
2022/08/17 12:44:57;;;;;;;22.23;12.67;;;;;;;29.39;56.61;99698.31;125662;1101;102290;-78